sensor_id;sensor_type;location;lat;lon;timestamp;pressure;altitude;pressure_sealevel;temperature;humidity
55604;BME280;41468;48.838;9.330;2023-03-17T00:00:48;98073.66;;;6.95;66.03
55604;BME280;41468;48.838;9.330;2023-03-17T00:03:21;98078.75;;;6.97;66.13
55604;BME280;41468;48.838;9.330;2023-03-17T00:06:22;98076.03;;;6.97;65.81
55604;BME280;41468;48.838;9.330;2023-03-17T00:08:55;98078.81;;;6.84;66.69
55604;BME280;41468;48.838;9.330;2023-03-17T00:11:23;98077.78;;;6.89;66.11
55604;BME280;41468;48.838;9.330;2023-03-17T00:13:55;98076.22;;;6.88;66.26
55604;BME280;41468;48.838;9.330;2023-03-17T00:16:24;98067.25;;;6.88;66.30
55604;BME280;41468;48.838;9.330;2023-03-17T00:18:53;98065.34;;;6.88;66.26
55604;BME280;41468;48.838;9.330;2023-03-17T00:21:27;98049.75;;;6.85;66.71
55604;BME280;41468;48.838;9.330;2023-03-17T00:23:54;98043.53;;;6.84;66.63
55604;BME280;41468;48.838;9.330;2023-03-17T00:26:26;98045.13;;;6.85;66.68
55604;BME280;41468;48.838;9.330;2023-03-17T00:28:54;98041.19;;;6.83;66.94
55604;BME280;41468;48.838;9.330;2023-03-17T00:31:24;98041.25;;;6.86;66.62
55604;BME280;41468;48.838;9.330;2023-03-17T00:33:53;98040.47;;;6.86;66.93
55604;BME280;41468;48.838;9.330;2023-03-17T00:36:23;98034.16;;;6.82;67.09
55604;BME280;41468;48.838;9.330;2023-03-17T00:38:50;98033.19;;;6.90;66.83
55604;BME280;41468;48.838;9.330;2023-03-17T00:41:18;98033.28;;;6.78;67.59
55604;BME280;41468;48.838;9.330;2023-03-17T00:43:45;98030.22;;;6.79;67.47
55604;BME280;41468;48.838;9.330;2023-03-17T00:46:24;98026.00;;;6.66;68.92
55604;BME280;41468;48.838;9.330;2023-03-17T00:48:53;98022.69;;;6.73;67.91
55604;BME280;41468;48.838;9.330;2023-03-17T00:51:21;98017.00;;;6.78;67.28
55604;BME280;41468;48.838;9.330;2023-03-17T00:53:59;98019.28;;;6.76;67.97
55604;BME280;41468;48.838;9.330;2023-03-17T00:56:26;98021.75;;;6.81;67.22
55604;BME280;41468;48.838;9.330;2023-03-17T00:58:53;98011.47;;;6.74;68.73
55604;BME280;41468;48.838;9.330;2023-03-17T01:01:20;98013.06;;;6.75;67.56
55604;BME280;41468;48.838;9.330;2023-03-17T01:03:46;98013.16;;;6.79;67.43
55604;BME280;41468;48.838;9.330;2023-03-17T01:06:14;98013.06;;;6.75;67.73
55604;BME280;41468;48.838;9.330;2023-03-17T01:08:45;98005.97;;;6.86;67.35
55604;BME280;41468;48.838;9.330;2023-03-17T01:11:19;97994.16;;;6.95;66.67
55604;BME280;41468;48.838;9.330;2023-03-17T01:13:50;97985.22;;;6.94;66.70
55604;BME280;41468;48.838;9.330;2023-03-17T01:16:16;97976.91;;;6.87;66.91
55604;BME280;41468;48.838;9.330;2023-03-17T01:18:48;97975.69;;;6.84;67.60
55604;BME280;41468;48.838;9.330;2023-03-17T01:21:14;97973.22;;;6.79;67.29
55604;BME280;41468;48.838;9.330;2023-03-17T01:23:41;97965.91;;;6.80;67.52
55604;BME280;41468;48.838;9.330;2023-03-17T01:26:13;97985.75;;;6.68;67.90
55604;BME280;41468;48.838;9.330;2023-03-17T01:28:40;97980.94;;;6.77;67.29
55604;BME280;41468;48.838;9.330;2023-03-17T01:31:07;97982.44;;;6.91;66.83
55604;BME280;41468;48.838;9.330;2023-03-17T01:33:34;97980.00;;;6.85;67.10
55604;BME280;41468;48.838;9.330;2023-03-17T01:36:12;97977.97;;;6.82;67.15
55604;BME280;41468;48.838;9.330;2023-03-17T01:38:39;97982.59;;;6.82;67.08
55604;BME280;41468;48.838;9.330;2023-03-17T01:41:12;97978.13;;;6.74;67.30
55604;BME280;41468;48.838;9.330;2023-03-17T01:43:39;97973.69;;;6.81;67.41
55604;BME280;41468;48.838;9.330;2023-03-17T01:46:23;97974.13;;;6.83;67.19
55604;BME280;41468;48.838;9.330;2023-03-17T01:51:38;97983.56;;;6.90;66.78
55604;BME280;41468;48.838;9.330;2023-03-17T01:54:11;97980.50;;;6.91;66.79
55604;BME280;41468;48.838;9.330;2023-03-17T01:56:41;97979.03;;;6.94;66.68
55604;BME280;41468;48.838;9.330;2023-03-17T01:59:12;97972.50;;;6.98;66.56
55604;BME280;41468;48.838;9.330;2023-03-17T02:01:46;97979.44;;;6.96;66.51
55604;BME280;41468;48.838;9.330;2023-03-17T02:04:15;97970.09;;;6.93;66.48
55604;BME280;41468;48.838;9.330;2023-03-17T02:06:42;97962.22;;;6.88;66.67
55604;BME280;41468;48.838;9.330;2023-03-17T02:09:15;97960.28;;;6.89;66.84
55604;BME280;41468;48.838;9.330;2023-03-17T02:11:47;97960.63;;;6.87;66.64
55604;BME280;41468;48.838;9.330;2023-03-17T02:14:14;97957.91;;;6.87;66.44
55604;BME280;41468;48.838;9.330;2023-03-17T02:16:43;97963.06;;;6.92;66.75
55604;BME280;41468;48.838;9.330;2023-03-17T02:19:15;97964.13;;;6.88;67.15
55604;BME280;41468;48.838;9.330;2023-03-17T02:21:43;97963.59;;;6.82;67.33
55604;BME280;41468;48.838;9.330;2023-03-17T02:24:40;97958.63;;;6.68;67.43
55604;BME280;41468;48.838;9.330;2023-03-17T02:27:18;97953.56;;;6.67;68.03
55604;BME280;41468;48.838;9.330;2023-03-17T02:29:58;97958.81;;;6.75;67.74
55604;BME280;41468;48.838;9.330;2023-03-17T02:32:34;97953.97;;;6.69;67.63
55604;BME280;41468;48.838;9.330;2023-03-17T02:35:02;97953.91;;;6.65;68.01
55604;BME280;41468;48.838;9.330;2023-03-17T02:37:36;97955.47;;;6.66;68.25
55604;BME280;41468;48.838;9.330;2023-03-17T02:40:05;97969.66;;;6.59;68.16
55604;BME280;41468;48.838;9.330;2023-03-17T02:42:36;97971.59;;;6.59;68.15
55604;BME280;41468;48.838;9.330;2023-03-17T02:45:06;97969.56;;;6.56;68.16
55604;BME280;41468;48.838;9.330;2023-03-17T02:47:34;97959.84;;;6.55;68.48
55604;BME280;41468;48.838;9.330;2023-03-17T02:50:01;97957.50;;;6.53;68.07
55604;BME280;41468;48.838;9.330;2023-03-17T02:52:28;97955.75;;;6.45;69.22
55604;BME280;41468;48.838;9.330;2023-03-17T02:54:59;97947.16;;;6.59;67.73
55604;BME280;41468;48.838;9.330;2023-03-17T02:57:30;97948.91;;;6.67;67.38
55604;BME280;41468;48.838;9.330;2023-03-17T02:59:57;97943.56;;;6.71;67.26
55604;BME280;41468;48.838;9.330;2023-03-17T03:02:28;97940.41;;;6.69;67.00
55604;BME280;41468;48.838;9.330;2023-03-17T03:04:55;97939.56;;;6.64;66.91
55604;BME280;41468;48.838;9.330;2023-03-17T03:07:22;97937.63;;;6.65;66.56
55604;BME280;41468;48.838;9.330;2023-03-17T03:10:00;97940.78;;;6.67;66.55
55604;BME280;41468;48.838;9.330;2023-03-17T03:12:27;97935.34;;;6.67;66.65
55604;BME280;41468;48.838;9.330;2023-03-17T03:15:05;97942.97;;;6.77;66.23
55604;BME280;41468;48.838;9.330;2023-03-17T03:17:32;97951.72;;;6.71;66.91
55604;BME280;41468;48.838;9.330;2023-03-17T03:19:58;97938.41;;;6.66;66.83
55604;BME280;41468;48.838;9.330;2023-03-17T03:22:25;97940.50;;;6.72;66.47
55604;BME280;41468;48.838;9.330;2023-03-17T03:24:52;97934.72;;;6.74;66.74
55604;BME280;41468;48.838;9.330;2023-03-17T03:27:18;97925.19;;;6.64;66.63
55604;BME280;41468;48.838;9.330;2023-03-17T03:29:45;97923.28;;;6.64;67.12
55604;BME280;41468;48.838;9.330;2023-03-17T03:32:12;97931.16;;;6.70;66.99
55604;BME280;41468;48.838;9.330;2023-03-17T03:34:39;97927.66;;;6.53;67.26
55604;BME280;41468;48.838;9.330;2023-03-17T03:37:10;97928.19;;;6.59;67.50
55604;BME280;41468;48.838;9.330;2023-03-17T03:39:36;97942.78;;;6.54;67.61
55604;BME280;41468;48.838;9.330;2023-03-17T03:42:04;97949.41;;;6.41;68.43
55604;BME280;41468;48.838;9.330;2023-03-17T03:44:36;97939.59;;;6.36;69.26
55604;BME280;41468;48.838;9.330;2023-03-17T03:47:03;97950.19;;;6.41;69.49
55604;BME280;41468;48.838;9.330;2023-03-17T03:49:30;97954.13;;;6.44;68.02
55604;BME280;41468;48.838;9.330;2023-03-17T03:51:57;97943.75;;;6.46;67.51
55604;BME280;41468;48.838;9.330;2023-03-17T03:54:23;97934.19;;;6.52;67.35
55604;BME280;41468;48.838;9.330;2023-03-17T03:56:50;97932.63;;;6.51;67.64
55604;BME280;41468;48.838;9.330;2023-03-17T03:59:21;97939.38;;;6.57;66.74
55604;BME280;41468;48.838;9.330;2023-03-17T04:01:48;97941.63;;;6.55;67.08
55604;BME280;41468;48.838;9.330;2023-03-17T04:04:14;97948.00;;;6.47;67.12
55604;BME280;41468;48.838;9.330;2023-03-17T04:06:41;97942.44;;;6.40;67.65
55604;BME280;41468;48.838;9.330;2023-03-17T04:09:08;97936.38;;;6.47;67.21
55604;BME280;41468;48.838;9.330;2023-03-17T04:11:41;97937.44;;;6.42;67.39
55604;BME280;41468;48.838;9.330;2023-03-17T04:14:12;97932.44;;;6.44;67.27
55604;BME280;41468;48.838;9.330;2023-03-17T04:16:39;97935.66;;;6.34;67.21
55604;BME280;41468;48.838;9.330;2023-03-17T04:19:10;97929.47;;;6.33;67.38
55604;BME280;41468;48.838;9.330;2023-03-17T04:21:42;97937.25;;;6.35;67.25
55604;BME280;41468;48.838;9.330;2023-03-17T04:24:09;97928.63;;;6.45;67.00
55604;BME280;41468;48.838;9.330;2023-03-17T04:26:35;97927.53;;;6.50;66.99
55604;BME280;41468;48.838;9.330;2023-03-17T04:29:02;97940.75;;;6.35;67.54
55604;BME280;41468;48.838;9.330;2023-03-17T04:31:29;97930.94;;;6.31;67.67
55604;BME280;41468;48.838;9.330;2023-03-17T04:34:12;97924.31;;;6.44;67.30
55604;BME280;41468;48.838;9.330;2023-03-17T04:36:41;97919.16;;;6.39;67.82
55604;BME280;41468;48.838;9.330;2023-03-17T04:39:08;97922.97;;;6.22;68.00
55604;BME280;41468;48.838;9.330;2023-03-17T04:41:35;97928.41;;;6.22;68.45
55604;BME280;41468;48.838;9.330;2023-03-17T04:44:07;97921.75;;;6.19;68.33
55604;BME280;41468;48.838;9.330;2023-03-17T04:46:34;97921.56;;;6.12;69.09
55604;BME280;41468;48.838;9.330;2023-03-17T04:49:01;97916.94;;;6.13;68.82
55604;BME280;41468;48.838;9.330;2023-03-17T04:51:28;97920.25;;;6.06;69.48
55604;BME280;41468;48.838;9.330;2023-03-17T04:53:54;97912.13;;;6.06;69.31
55604;BME280;41468;48.838;9.330;2023-03-17T04:56:21;97920.94;;;6.03;69.48
55604;BME280;41468;48.838;9.330;2023-03-17T04:58:48;97910.25;;;5.94;69.61
55604;BME280;41468;48.838;9.330;2023-03-17T05:01:21;97907.06;;;5.92;69.95
55604;BME280;41468;48.838;9.330;2023-03-17T05:03:47;97901.56;;;5.89;70.04
55604;BME280;41468;48.838;9.330;2023-03-17T05:06:14;97899.09;;;5.84;70.42
55604;BME280;41468;48.838;9.330;2023-03-17T05:08:42;97905.41;;;5.88;70.07
55604;BME280;41468;48.838;9.330;2023-03-17T05:11:15;97896.84;;;5.86;70.19
55604;BME280;41468;48.838;9.330;2023-03-17T05:13:41;97898.38;;;5.71;70.81
55604;BME280;41468;48.838;9.330;2023-03-17T05:16:08;97894.88;;;5.70;70.85
55604;BME280;41468;48.838;9.330;2023-03-17T05:18:36;97892.81;;;5.51;71.56
55604;BME280;41468;48.838;9.330;2023-03-17T05:21:05;97894.47;;;5.56;71.79
55604;BME280;41468;48.838;9.330;2023-03-17T05:23:33;97891.91;;;5.47;72.30
55604;BME280;41468;48.838;9.330;2023-03-17T05:26:00;97893.81;;;5.59;71.94
55604;BME280;41468;48.838;9.330;2023-03-17T05:28:27;97890.19;;;5.55;72.31
55604;BME280;41468;48.838;9.330;2023-03-17T05:30:54;97887.97;;;5.45;72.85
55604;BME280;41468;48.838;9.330;2023-03-17T05:33:25;97890.88;;;5.52;72.50
55604;BME280;41468;48.838;9.330;2023-03-17T05:35:53;97899.69;;;5.49;72.39
55604;BME280;41468;48.838;9.330;2023-03-17T05:38:24;97903.34;;;5.41;72.86
55604;BME280;41468;48.838;9.330;2023-03-17T05:40:50;97908.00;;;5.56;72.26
55604;BME280;41468;48.838;9.330;2023-03-17T05:43:19;97912.00;;;5.46;72.68
55604;BME280;41468;48.838;9.330;2023-03-17T05:45:51;97917.31;;;5.43;72.66
55604;BME280;41468;48.838;9.330;2023-03-17T05:48:18;97921.81;;;5.51;72.29
55604;BME280;41468;48.838;9.330;2023-03-17T05:50:45;97930.28;;;5.49;72.54
55604;BME280;41468;48.838;9.330;2023-03-17T05:53:16;97927.03;;;5.31;72.98
55604;BME280;41468;48.838;9.330;2023-03-17T05:55:43;97933.13;;;5.41;72.97
55604;BME280;41468;48.838;9.330;2023-03-17T05:58:10;97925.19;;;5.48;72.96
55604;BME280;41468;48.838;9.330;2023-03-17T06:00:36;97913.69;;;5.51;72.68
55604;BME280;41468;48.838;9.330;2023-03-17T06:03:04;97918.41;;;5.54;72.76
55604;BME280;41468;48.838;9.330;2023-03-17T06:05:31;97909.84;;;5.52;72.54
55604;BME280;41468;48.838;9.330;2023-03-17T06:08:08;97910.34;;;5.70;72.38
55604;BME280;41468;48.838;9.330;2023-03-17T06:10:39;97907.53;;;5.66;72.25
55604;BME280;41468;48.838;9.330;2023-03-17T06:13:18;97908.91;;;5.60;72.49
55604;BME280;41468;48.838;9.330;2023-03-17T06:15:50;97906.97;;;5.61;72.74
55604;BME280;41468;48.838;9.330;2023-03-17T06:18:22;97903.03;;;5.58;73.05
55604;BME280;41468;48.838;9.330;2023-03-17T06:20:48;97896.69;;;5.66;72.82
55604;BME280;41468;48.838;9.330;2023-03-17T06:23:15;97909.66;;;5.73;72.91
55604;BME280;41468;48.838;9.330;2023-03-17T06:25:53;97923.16;;;5.57;73.67
55604;BME280;41468;48.838;9.330;2023-03-17T06:28:20;97929.56;;;5.65;73.62
55604;BME280;41468;48.838;9.330;2023-03-17T06:30:52;97935.22;;;5.47;74.80
55604;BME280;41468;48.838;9.330;2023-03-17T06:33:18;97919.94;;;5.67;74.02
55604;BME280;41468;48.838;9.330;2023-03-17T06:35:50;97920.59;;;5.76;73.21
55604;BME280;41468;48.838;9.330;2023-03-17T06:38:17;97926.59;;;5.70;73.38
55604;BME280;41468;48.838;9.330;2023-03-17T06:40:43;97938.00;;;5.63;74.51
55604;BME280;41468;48.838;9.330;2023-03-17T06:43:10;97941.25;;;5.69;73.74
55604;BME280;41468;48.838;9.330;2023-03-17T06:45:42;97918.41;;;5.82;73.53
55604;BME280;41468;48.838;9.330;2023-03-17T06:48:13;97924.94;;;5.93;72.91
55604;BME280;41468;48.838;9.330;2023-03-17T06:50:40;97925.25;;;5.92;72.98
55604;BME280;41468;48.838;9.330;2023-03-17T06:53:06;97919.41;;;5.90;73.47
55604;BME280;41468;48.838;9.330;2023-03-17T06:55:33;97911.03;;;5.95;73.16
55604;BME280;41468;48.838;9.330;2023-03-17T06:58:00;97907.59;;;6.10;72.69
55604;BME280;41468;48.838;9.330;2023-03-17T07:00:33;97915.03;;;6.13;72.47
55604;BME280;41468;48.838;9.330;2023-03-17T07:02:59;97911.34;;;6.22;72.18
55604;BME280;41468;48.838;9.330;2023-03-17T07:05:26;97902.88;;;6.39;71.91
55604;BME280;41468;48.838;9.330;2023-03-17T07:07:53;97917.22;;;6.55;71.69
55604;BME280;41468;48.838;9.330;2023-03-17T07:10:20;97920.81;;;6.75;70.66
55604;BME280;41468;48.838;9.330;2023-03-17T07:12:48;97920.31;;;7.21;69.25
55604;BME280;41468;48.838;9.330;2023-03-17T07:15:15;97919.59;;;7.43;68.07
55604;BME280;41468;48.838;9.330;2023-03-17T07:17:42;97922.28;;;7.59;67.41
55604;BME280;41468;48.838;9.330;2023-03-17T07:20:09;97921.75;;;7.92;65.85
55604;BME280;41468;48.838;9.330;2023-03-17T07:22:37;97922.31;;;8.02;65.37
55604;BME280;41468;48.838;9.330;2023-03-17T07:25:04;97921.69;;;8.31;64.45
55604;BME280;41468;48.838;9.330;2023-03-17T07:27:30;97929.91;;;8.35;63.59
55604;BME280;41468;48.838;9.330;2023-03-17T07:30:04;97929.66;;;8.40;62.15
55604;BME280;41468;48.838;9.330;2023-03-17T07:32:31;97917.00;;;8.74;62.30
55604;BME280;41468;48.838;9.330;2023-03-17T07:34:58;97916.41;;;8.84;61.76
55604;BME280;41468;48.838;9.330;2023-03-17T07:37:29;97921.09;;;8.88;60.13
55604;BME280;41468;48.838;9.330;2023-03-17T07:39:56;97917.28;;;8.92;60.47
55604;BME280;41468;48.838;9.330;2023-03-17T07:42:23;97914.19;;;8.94;59.98
55604;BME280;41468;48.838;9.330;2023-03-17T07:44:49;97916.13;;;8.93;59.84
55604;BME280;41468;48.838;9.330;2023-03-17T07:47:16;97903.59;;;8.89;59.61
55604;BME280;41468;48.838;9.330;2023-03-17T07:49:43;97919.13;;;8.84;59.93
55604;BME280;41468;48.838;9.330;2023-03-17T07:52:10;97913.88;;;8.99;60.84
55604;BME280;41468;48.838;9.330;2023-03-17T07:54:38;97910.72;;;9.23;60.29
55604;BME280;41468;48.838;9.330;2023-03-17T07:57:08;97913.25;;;9.36;59.46
55604;BME280;41468;48.838;9.330;2023-03-17T07:59:39;97919.09;;;9.38;59.27
55604;BME280;41468;48.838;9.330;2023-03-17T08:02:13;97906.91;;;9.58;57.70
55604;BME280;41468;48.838;9.330;2023-03-17T08:04:42;97915.72;;;9.48;59.63
55604;BME280;41468;48.838;9.330;2023-03-17T08:07:09;97912.81;;;9.64;57.01
55604;BME280;41468;48.838;9.330;2023-03-17T08:09:36;97913.78;;;9.79;56.45
55604;BME280;41468;48.838;9.330;2023-03-17T08:12:03;97906.97;;;9.99;55.59
55604;BME280;41468;48.838;9.330;2023-03-17T08:14:30;97902.47;;;10.14;54.40
55604;BME280;41468;48.838;9.330;2023-03-17T08:16:57;97898.16;;;10.50;53.22
55604;BME280;41468;48.838;9.330;2023-03-17T08:19:24;97906.25;;;10.88;53.52
55604;BME280;41468;48.838;9.330;2023-03-17T08:21:55;97915.06;;;11.18;53.27
55604;BME280;41468;48.838;9.330;2023-03-17T08:24:22;97912.03;;;11.41;54.05
55604;BME280;41468;48.838;9.330;2023-03-17T08:26:49;97916.09;;;11.72;53.08
55604;BME280;41468;48.838;9.330;2023-03-17T08:29:15;97916.94;;;11.84;49.76
55604;BME280;41468;48.838;9.330;2023-03-17T08:31:52;97909.22;;;12.04;48.00
55604;BME280;41468;48.838;9.330;2023-03-17T08:34:19;97909.25;;;12.14;50.26
55604;BME280;41468;48.838;9.330;2023-03-17T08:36:50;97911.16;;;12.00;48.38
55604;BME280;41468;48.838;9.330;2023-03-17T08:39:18;97897.88;;;12.09;48.04
55604;BME280;41468;48.838;9.330;2023-03-17T08:41:46;97912.34;;;11.99;47.43
55604;BME280;41468;48.838;9.330;2023-03-17T08:44:13;97904.13;;;12.06;47.30
55604;BME280;41468;48.838;9.330;2023-03-17T08:46:40;97902.56;;;12.01;47.96
55604;BME280;41468;48.838;9.330;2023-03-17T08:49:07;97898.28;;;12.07;48.93
55604;BME280;41468;48.838;9.330;2023-03-17T08:51:36;97906.50;;;12.22;48.41
55604;BME280;41468;48.838;9.330;2023-03-17T08:54:04;97888.94;;;12.62;49.01
55604;BME280;41468;48.838;9.330;2023-03-17T08:56:38;97891.31;;;12.81;45.78
55604;BME280;41468;48.838;9.330;2023-03-17T08:59:05;97887.38;;;12.90;46.84
55604;BME280;41468;48.838;9.330;2023-03-17T09:01:32;97879.91;;;12.97;45.39
55604;BME280;41468;48.838;9.330;2023-03-17T09:04:00;97877.59;;;13.03;45.66
55604;BME280;41468;48.838;9.330;2023-03-17T09:06:28;97880.28;;;13.24;44.31
55604;BME280;41468;48.838;9.330;2023-03-17T09:09:06;97882.63;;;13.22;42.86
55604;BME280;41468;48.838;9.330;2023-03-17T09:11:33;97879.03;;;13.58;44.13
55604;BME280;41468;48.838;9.330;2023-03-17T09:14:00;97879.41;;;13.60;42.29
55604;BME280;41468;48.838;9.330;2023-03-17T09:16:27;97882.53;;;13.58;42.20
55604;BME280;41468;48.838;9.330;2023-03-17T09:19:05;97882.44;;;13.87;42.71
55604;BME280;41468;48.838;9.330;2023-03-17T09:21:31;97876.03;;;14.04;42.53
55604;BME280;41468;48.838;9.330;2023-03-17T09:23:58;97879.00;;;14.31;43.11
55604;BME280;41468;48.838;9.330;2023-03-17T09:26:27;97882.03;;;14.48;43.29
55604;BME280;41468;48.838;9.330;2023-03-17T09:28:54;97876.84;;;14.64;42.95
55604;BME280;41468;48.838;9.330;2023-03-17T09:31:21;97868.63;;;14.64;42.79
55604;BME280;41468;48.838;9.330;2023-03-17T09:33:47;97864.44;;;14.90;41.79
55604;BME280;41468;48.838;9.330;2023-03-17T09:36:14;97870.53;;;15.09;41.87
55604;BME280;41468;48.838;9.330;2023-03-17T09:38:41;97862.44;;;15.32;41.92
55604;BME280;41468;48.838;9.330;2023-03-17T09:49:22;97870.84;;;15.56;40.96
55604;BME280;41468;48.838;9.330;2023-03-17T09:52:03;97874.81;;;15.85;39.52
55604;BME280;41468;48.838;9.330;2023-03-17T09:54:33;97879.44;;;15.92;39.66
55604;BME280;41468;48.838;9.330;2023-03-17T09:57:24;97880.03;;;16.34;40.60
55604;BME280;41468;48.838;9.330;2023-03-17T10:00:20;97870.72;;;16.51;41.85
55604;BME280;41468;48.838;9.330;2023-03-17T10:02:48;97871.84;;;16.54;39.40
55604;BME280;41468;48.838;9.330;2023-03-17T10:05:24;97862.81;;;17.00;42.25
55604;BME280;41468;48.838;9.330;2023-03-17T10:10:28;97859.16;;;16.60;38.95
55604;BME280;41468;48.838;9.330;2023-03-17T10:15:49;97860.66;;;17.12;38.06
55604;BME280;41468;48.838;9.330;2023-03-17T10:18:23;97861.94;;;17.27;36.76
55604;BME280;41468;48.838;9.330;2023-03-17T10:20:56;97855.66;;;17.66;37.17
55604;BME280;41468;48.838;9.330;2023-03-17T10:23:32;97850.00;;;17.54;36.47
55604;BME280;41468;48.838;9.330;2023-03-17T10:26:10;97845.88;;;17.62;35.95
55604;BME280;41468;48.838;9.330;2023-03-17T10:28:42;97837.97;;;17.44;36.86
55604;BME280;41468;48.838;9.330;2023-03-17T10:31:18;97835.50;;;17.50;36.70
55604;BME280;41468;48.838;9.330;2023-03-17T10:33:49;97829.63;;;17.28;37.18
55604;BME280;41468;48.838;9.330;2023-03-17T10:36:34;97828.91;;;17.23;37.29
55604;BME280;41468;48.838;9.330;2023-03-17T10:39:03;97836.38;;;17.03;38.13
55604;BME280;41468;48.838;9.330;2023-03-17T10:41:32;97830.16;;;16.99;37.32
55604;BME280;41468;48.838;9.330;2023-03-17T10:44:00;97819.78;;;17.07;37.01
55604;BME280;41468;48.838;9.330;2023-03-17T10:46:27;97829.97;;;17.10;36.59
55604;BME280;41468;48.838;9.330;2023-03-17T10:49:02;97829.97;;;17.10;36.90
55604;BME280;41468;48.838;9.330;2023-03-17T10:51:34;97815.13;;;17.23;38.12
55604;BME280;41468;48.838;9.330;2023-03-17T10:54:09;97820.28;;;17.41;36.83
55604;BME280;41468;48.838;9.330;2023-03-17T10:56:38;97816.06;;;17.93;36.45
55604;BME280;41468;48.838;9.330;2023-03-17T10:59:16;97815.06;;;18.03;36.37
55604;BME280;41468;48.838;9.330;2023-03-17T11:01:52;97817.22;;;18.28;36.73
55604;BME280;41468;48.838;9.330;2023-03-17T11:06:49;97808.16;;;18.77;35.82
55604;BME280;41468;48.838;9.330;2023-03-17T11:09:18;97809.75;;;18.91;35.56
55604;BME280;41468;48.838;9.330;2023-03-17T11:12:00;97808.28;;;19.03;34.63
55604;BME280;41468;48.838;9.330;2023-03-17T11:14:27;97807.09;;;19.46;34.82
55604;BME280;41468;48.838;9.330;2023-03-17T11:17:00;97798.56;;;19.40;34.48
55604;BME280;41468;48.838;9.330;2023-03-17T11:19:40;97792.09;;;19.01;33.83
55604;BME280;41468;48.838;9.330;2023-03-17T11:24:58;97792.81;;;19.18;34.48
55604;BME280;41468;48.838;9.330;2023-03-17T11:27:35;97783.69;;;19.05;33.62
55604;BME280;41468;48.838;9.330;2023-03-17T11:30:13;97780.22;;;18.88;33.66
55604;BME280;41468;48.838;9.330;2023-03-17T11:38:36;97781.56;;;18.96;32.89
55604;BME280;41468;48.838;9.330;2023-03-17T11:43:52;97761.00;;;18.97;32.90
55604;BME280;41468;48.838;9.330;2023-03-17T11:49:12;97766.25;;;18.79;34.00
55604;BME280;41468;48.838;9.330;2023-03-17T11:56:47;97758.16;;;19.42;34.64
55604;BME280;41468;48.838;9.330;2023-03-17T11:59:36;97746.81;;;19.24;32.99
55604;BME280;41468;48.838;9.330;2023-03-17T12:05:07;97750.41;;;19.63;33.19
55604;BME280;41468;48.838;9.330;2023-03-17T12:07:48;97751.13;;;19.67;32.29
55604;BME280;41468;48.838;9.330;2023-03-17T12:10:29;97743.81;;;19.86;33.92
55604;BME280;41468;48.838;9.330;2023-03-17T12:13:11;97740.66;;;19.58;31.78
55604;BME280;41468;48.838;9.330;2023-03-17T12:15:43;97740.69;;;19.97;33.38
55604;BME280;41468;48.838;9.330;2023-03-17T12:18:19;97738.34;;;20.08;34.17
55604;BME280;41468;48.838;9.330;2023-03-17T12:20:59;97737.03;;;19.87;33.33
55604;BME280;41468;48.838;9.330;2023-03-17T12:23:47;97737.59;;;19.95;33.04
55604;BME280;41468;48.838;9.330;2023-03-17T12:26:20;97724.06;;;19.71;34.21
55604;BME280;41468;48.838;9.330;2023-03-17T12:28:54;97727.25;;;19.57;33.26
55604;BME280;41468;48.838;9.330;2023-03-17T12:31:35;97730.97;;;19.67;32.84
55604;BME280;41468;48.838;9.330;2023-03-17T12:34:19;97725.31;;;19.70;33.27
55604;BME280;41468;48.838;9.330;2023-03-17T12:36:47;97727.13;;;19.48;32.59
55604;BME280;41468;48.838;9.330;2023-03-17T12:39:18;97713.28;;;19.48;34.59
55604;BME280;41468;48.838;9.330;2023-03-17T12:41:59;97719.22;;;19.75;32.25
55604;BME280;41468;48.838;9.330;2023-03-17T12:47:28;97717.78;;;19.83;33.41
55604;BME280;41468;48.838;9.330;2023-03-17T12:50:17;97713.34;;;19.86;30.96
55604;BME280;41468;48.838;9.330;2023-03-17T12:55:26;97713.63;;;20.01;33.21
55604;BME280;41468;48.838;9.330;2023-03-17T12:57:59;97708.69;;;19.70;31.88
55604;BME280;41468;48.838;9.330;2023-03-17T13:00:30;97711.22;;;19.64;31.93
55604;BME280;41468;48.838;9.330;2023-03-17T13:03:19;97693.91;;;19.48;31.96
55604;BME280;41468;48.838;9.330;2023-03-17T13:05:59;97698.69;;;19.60;34.32
55604;BME280;41468;48.838;9.330;2023-03-17T13:08:33;97695.25;;;19.56;31.97
55604;BME280;41468;48.838;9.330;2023-03-17T13:16:39;97687.84;;;19.40;33.18
55604;BME280;41468;48.838;9.330;2023-03-17T13:19:23;97684.06;;;19.47;34.98
55604;BME280;41468;48.838;9.330;2023-03-17T13:24:43;97677.53;;;19.66;33.78
55604;BME280;41468;48.838;9.330;2023-03-17T13:41:33;97661.25;;;19.55;33.03
55604;BME280;41468;48.838;9.330;2023-03-17T13:47:15;97644.84;;;19.61;32.10
55604;BME280;41468;48.838;9.330;2023-03-17T13:49:52;97645.88;;;19.67;34.52
55604;BME280;41468;48.838;9.330;2023-03-17T13:52:30;97638.66;;;19.57;33.71
55604;BME280;41468;48.838;9.330;2023-03-17T13:55:27;97632.78;;;19.55;34.51
55604;BME280;41468;48.838;9.330;2023-03-17T14:00:41;97644.31;;;19.40;35.45
55604;BME280;41468;48.838;9.330;2023-03-17T14:03:14;97633.56;;;19.42;35.82
55604;BME280;41468;48.838;9.330;2023-03-17T14:05:48;97627.38;;;19.51;34.83
55604;BME280;41468;48.838;9.330;2023-03-17T14:11:16;97620.84;;;19.32;31.30
55604;BME280;41468;48.838;9.330;2023-03-17T14:16:32;97616.19;;;19.29;33.96
55604;BME280;41468;48.838;9.330;2023-03-17T14:19:14;97610.66;;;19.29;37.00
55604;BME280;41468;48.838;9.330;2023-03-17T14:21:43;97616.06;;;19.33;38.35
55604;BME280;41468;48.838;9.330;2023-03-17T14:24:30;97619.06;;;19.38;38.34
55604;BME280;41468;48.838;9.330;2023-03-17T14:27:04;97617.53;;;19.37;39.32
55604;BME280;41468;48.838;9.330;2023-03-17T14:29:33;97613.53;;;19.38;38.45
55604;BME280;41468;48.838;9.330;2023-03-17T14:32:14;97602.00;;;19.53;38.44
55604;BME280;41468;48.838;9.330;2023-03-17T14:34:46;97605.00;;;19.46;38.42
55604;BME280;41468;48.838;9.330;2023-03-17T14:37:18;97610.53;;;19.46;38.29
55604;BME280;41468;48.838;9.330;2023-03-17T14:39:51;97604.22;;;19.32;39.06
55604;BME280;41468;48.838;9.330;2023-03-17T14:42:29;97598.13;;;19.25;38.98
55604;BME280;41468;48.838;9.330;2023-03-17T14:45:07;97600.91;;;19.12;39.31
55604;BME280;41468;48.838;9.330;2023-03-17T14:47:39;97600.03;;;19.02;38.46